Time;durP1;ratioP1;P1;durP2;ratioP2;P2;SDS_P1;SDS_P2;PMS_P1;PMS_P2;Temp;Humidity;BMP_temperature;BMP_pressure;BME280_temperature;BME280_humidity;BME280_pressure;Samples;Min_cycle;Max_cycle;Signal;HPM_P1;HPM_P2
2022/04/06 00:01:47;;;;;;;8.97;7.40;;;11.10;99.90;;;;;;5047972;28;20464;-74
2022/04/06 00:04:13;;;;;;;9.27;7.80;;;11.10;99.90;;;;;;5048593;28;20264;-72
2022/04/06 00:06:39;;;;;;;13.83;8.40;;;11.10;99.90;;;;;;5026367;28;20632;-75
2022/04/06 00:09:05;;;;;;;13.93;7.90;;;11.10;99.90;;;;;;5029481;28;20253;-74
2022/04/06 00:11:30;;;;;;;10.23;7.70;;;11.10;99.90;;;;;;5028397;28;20197;-74
2022/04/06 00:13:57;;;;;;;8.70;7.70;;;11.10;99.90;;;;;;5010874;28;20197;-75
2022/04/06 00:16:23;;;;;;;10.00;7.70;;;11.10;99.90;;;;;;5019439;28;20181;-75
2022/04/06 00:18:48;;;;;;;9.30;7.70;;;11.10;99.90;;;;;;5019905;28;20508;-74
2022/04/06 00:21:14;;;;;;;10.70;7.63;;;11.10;99.90;;;;;;5039840;28;20265;-74
2022/04/06 00:23:39;;;;;;;11.00;8.87;;;11.10;99.90;;;;;;5049191;28;20259;-74
2022/04/06 00:26:05;;;;;;;10.03;7.90;;;11.10;99.90;;;;;;5030309;28;20205;-75
2022/04/06 00:28:31;;;;;;;9.77;7.70;;;11.10;99.90;;;;;;5047820;28;20170;-74
2022/04/06 00:30:57;;;;;;;9.07;7.97;;;11.10;99.90;;;;;;5047959;28;20515;-74
2022/04/06 00:33:22;;;;;;;10.90;7.77;;;11.10;99.90;;;;;;5048651;28;20621;-75
2022/04/06 00:35:48;;;;;;;10.03;8.73;;;11.10;99.90;;;;;;5048449;28;20705;-74
2022/04/06 00:38:14;;;;;;;10.87;7.70;;;11.10;99.90;;;;;;5048474;28;20173;-74
2022/04/06 00:40:40;;;;;;;8.87;7.60;;;11.10;99.90;;;;;;5029710;28;20231;-75
2022/04/06 00:43:11;;;;;;;10.77;7.80;;;11.10;99.90;;;;;;5027116;28;20181;-74
2022/04/06 00:45:38;;;;;;;10.13;7.80;;;11.20;99.90;;;;;;5028453;28;20208;-75
2022/04/06 00:48:04;;;;;;;12.30;8.07;;;11.20;99.90;;;;;;5028415;28;20705;-75
2022/04/06 00:50:30;;;;;;;9.80;7.87;;;11.20;99.90;;;;;;5037219;28;20461;-75
2022/04/06 00:52:57;;;;;;;9.57;7.80;;;11.20;99.90;;;;;;5047336;28;20472;-74
2022/04/06 00:55:29;;;;;;;8.43;7.53;;;11.20;99.90;;;;;;5048723;28;20427;-75
2022/04/06 00:57:55;;;;;;;8.13;7.27;;;11.20;99.90;;;;;;5047828;28;20455;-74
2022/04/06 01:00:21;;;;;;;9.57;7.23;;;11.20;99.90;;;;;;5048340;28;20486;-75
2022/04/06 01:02:47;;;;;;;9.00;7.60;;;11.20;99.90;;;;;;5048228;28;20557;-74
2022/04/06 01:05:13;;;;;;;8.07;7.20;;;11.20;99.90;;;;;;5047679;28;20204;-75
2022/04/06 01:07:40;;;;;;;12.63;7.50;;;11.10;99.90;;;;;;5048239;28;20400;-74
2022/04/06 01:10:05;;;;;;;11.13;7.47;;;11.20;99.90;;;;;;5048217;28;20172;-74
2022/04/06 01:12:35;;;;;;;8.37;7.40;;;11.20;99.90;;;;;;5047834;28;20427;-74
2022/04/06 01:15:00;;;;;;;9.30;7.40;;;11.20;99.90;;;;;;5029173;28;20208;-75
2022/04/06 01:17:33;;;;;;;8.20;7.30;;;11.20;99.90;;;;;;5048052;28;20491;-72
2022/04/06 01:20:00;;;;;;;8.53;6.90;;;11.20;99.90;;;;;;5037837;28;20161;-75
2022/04/06 01:22:26;;;;;;;13.03;7.40;;;11.20;99.90;;;;;;5025125;28;20445;-75
2022/04/06 01:24:52;;;;;;;9.83;7.57;;;11.20;99.90;;;;;;5048217;28;20435;-75
2022/04/06 01:27:17;;;;;;;9.83;6.90;;;11.20;99.90;;;;;;5028082;28;20464;-74
2022/04/06 01:29:44;;;;;;;9.70;7.60;;;11.20;99.90;;;;;;5009558;28;20173;-75
2022/04/06 01:32:17;;;;;;;8.60;6.93;;;11.20;99.90;;;;;;5027185;28;20228;-75
2022/04/06 01:34:43;;;;;;;8.60;7.13;;;11.20;99.90;;;;;;5028093;28;20428;-75
2022/04/06 01:37:11;;;;;;;8.43;7.33;;;11.20;99.90;;;;;;5028027;28;20412;-75
2022/04/06 01:39:38;;;;;;;8.80;7.23;;;11.20;99.90;;;;;;5028142;28;20408;-75
2022/04/06 01:42:05;;;;;;;8.67;6.77;;;11.10;99.90;;;;;;5026425;28;20507;-74
2022/04/06 01:44:32;;;;;;;8.53;6.70;;;11.10;99.90;;;;;;5027597;28;20736;-74
2022/04/06 01:46:58;;;;;;;8.40;7.10;;;11.10;99.90;;;;;;5009571;28;20460;-74
2022/04/06 01:52:17;;;;;;;10.03;7.10;;;11.10;99.90;;;;;;5033326;28;20968;-74
2022/04/06 01:54:44;;;;;;;7.10;6.40;;;11.20;99.90;;;;;;5047809;28;20442;-75
2022/04/06 01:57:10;;;;;;;7.37;6.67;;;11.10;99.90;;;;;;5047024;28;20403;-74
2022/04/06 01:59:36;;;;;;;9.70;6.87;;;11.20;99.90;;;;;;5047694;28;20511;-75
2022/04/06 02:02:03;;;;;;;8.17;7.10;;;11.20;99.90;;;;;;5029082;28;20526;-74
2022/04/06 02:04:29;;;;;;;9.50;6.30;;;11.20;99.90;;;;;;5041985;28;20243;-74
2022/04/06 02:06:55;;;;;;;9.60;6.90;;;11.20;99.90;;;;;;5008468;28;20460;-75
2022/04/06 02:09:20;;;;;;;7.67;6.67;;;11.30;99.90;;;;;;5027957;28;20184;-75
2022/04/06 02:11:47;;;;;;;7.97;6.30;;;11.50;99.90;;;;;;5026544;28;20169;-74
2022/04/06 02:14:13;;;;;;;8.13;6.17;;;11.30;99.90;;;;;;5026963;28;20577;-75
2022/04/06 02:16:39;;;;;;;7.03;6.33;;;11.30;99.90;;;;;;5028211;28;20478;-74
2022/04/06 02:19:05;;;;;;;8.47;6.63;;;11.30;99.90;;;;;;5035394;28;20200;-75
2022/04/06 02:21:31;;;;;;;8.20;6.30;;;11.30;99.90;;;;;;5042609;28;20431;-75
2022/04/06 02:23:57;;;;;;;9.60;7.13;;;11.30;99.90;;;;;;5034830;28;20585;-75
2022/04/06 02:26:23;;;;;;;6.60;5.90;;;11.30;99.90;;;;;;5030629;28;20602;-75
2022/04/06 02:28:48;;;;;;;8.77;6.07;;;11.30;99.90;;;;;;5030913;28;20543;-75
2022/04/06 02:31:14;;;;;;;6.90;5.50;;;11.30;99.90;;;;;;5030630;28;20453;-75
2022/04/06 02:33:40;;;;;;;7.90;6.40;;;11.30;99.90;;;;;;5031220;28;20519;-74
2022/04/06 02:36:06;;;;;;;6.90;6.00;;;11.30;99.90;;;;;;5013096;28;20590;-74
2022/04/06 02:38:31;;;;;;;7.10;6.23;;;11.30;99.90;;;;;;5013508;28;20503;-74
2022/04/06 02:40:57;;;;;;;7.03;6.03;;;11.30;99.90;;;;;;5030309;28;20555;-73
2022/04/06 02:43:22;;;;;;;8.23;6.33;;;11.30;99.90;;;;;;5029380;28;20645;-74
2022/04/06 02:45:48;;;;;;;7.63;6.23;;;11.30;99.90;;;;;;5030424;28;20202;-75
2022/04/06 02:48:15;;;;;;;7.50;6.40;;;11.30;99.90;;;;;;5030405;28;20257;-75
2022/04/06 02:50:41;;;;;;;9.43;6.03;;;11.30;99.90;;;;;;5040072;28;20181;-75
2022/04/06 02:53:07;;;;;;;6.60;5.77;;;11.30;99.90;;;;;;5032330;28;20794;-74
2022/04/06 02:55:33;;;;;;;6.77;5.90;;;11.30;99.90;;;;;;5050051;28;20571;-75
2022/04/06 02:57:58;;;;;;;7.00;6.30;;;11.70;99.90;;;;;;5050230;28;20169;-74
2022/04/06 03:00:24;;;;;;;9.00;6.03;;;11.30;99.90;;;;;;5050404;28;20177;-74
2022/04/06 03:02:50;;;;;;;8.80;6.43;;;11.30;99.90;;;;;;5050210;28;20183;-74
2022/04/06 03:05:15;;;;;;;7.00;6.10;;;11.30;99.90;;;;;;5050662;28;20828;-75
2022/04/06 03:07:41;;;;;;;7.37;6.47;;;11.30;99.90;;;;;;5050501;28;20208;-75
2022/04/06 03:10:07;;;;;;;6.17;5.50;;;11.30;99.90;;;;;;5050573;28;20856;-75
2022/04/06 03:12:33;;;;;;;7.47;6.17;;;11.50;99.90;;;;;;5049895;28;20169;-75
2022/04/06 03:14:59;;;;;;;7.83;5.80;;;11.30;99.90;;;;;;5049643;28;20557;-74
2022/04/06 03:17:24;;;;;;;6.60;5.77;;;11.30;99.90;;;;;;5050254;28;20522;-75
2022/04/06 03:19:50;;;;;;;7.73;6.40;;;11.30;99.90;;;;;;5041366;28;20521;-74
2022/04/06 03:22:17;;;;;;;8.17;5.93;;;11.20;99.90;;;;;;5044255;28;20234;-74
2022/04/06 03:24:47;;;;;;;7.40;6.13;;;11.30;99.90;;;;;;5050196;28;20196;-75
2022/04/06 03:27:13;;;;;;;8.10;5.97;;;11.20;99.90;;;;;;5037013;28;20456;-75
2022/04/06 03:29:40;;;;;;;6.90;5.70;;;11.20;99.90;;;;;;5029739;28;20408;-74
2022/04/06 03:32:09;;;;;;;6.50;5.50;;;11.30;99.90;;;;;;5029417;28;20498;-75
2022/04/06 03:34:35;;;;;;;7.10;5.87;;;11.30;99.90;;;;;;5029619;28;20424;-75
2022/04/06 03:37:00;;;;;;;7.53;6.03;;;11.30;99.90;;;;;;5029986;28;20442;-74
2022/04/06 03:39:26;;;;;;;9.73;6.17;;;11.20;99.90;;;;;;5030016;28;20255;-75
2022/04/06 03:41:51;;;;;;;7.23;6.03;;;11.20;99.90;;;;;;5029249;28;20570;-75
2022/04/06 03:44:17;;;;;;;9.47;6.53;;;11.20;99.90;;;;;;5029415;28;20194;-76
2022/04/06 03:46:43;;;;;;;7.90;6.30;;;11.20;99.90;;;;;;5029335;28;20600;-75
2022/04/06 03:49:08;;;;;;;9.23;6.03;;;11.20;99.90;;;;;;5034454;28;20170;-75
2022/04/06 03:51:34;;;;;;;7.77;6.03;;;11.20;99.90;;;;;;5041288;28;20197;-75
2022/04/06 03:53:59;;;;;;;7.73;6.37;;;11.20;99.90;;;;;;5031539;28;20169;-75
2022/04/06 03:56:26;;;;;;;7.20;5.83;;;11.20;99.90;;;;;;5049222;28;20185;-75
2022/04/06 03:58:51;;;;;;;8.50;6.43;;;11.30;99.90;;;;;;5049186;28;20248;-75
2022/04/06 04:01:17;;;;;;;7.50;5.97;;;11.50;99.90;;;;;;5048802;28;20673;-74
2022/04/06 04:03:43;;;;;;;8.40;5.93;;;11.30;99.90;;;;;;5048796;28;20173;-75
2022/04/06 04:06:08;;;;;;;6.80;6.00;;;11.30;99.90;;;;;;5028848;28;20224;-75
2022/04/06 04:08:33;;;;;;;7.73;5.40;;;11.30;99.90;;;;;;5010758;28;20200;-75
2022/04/06 04:10:59;;;;;;;7.70;5.90;;;11.30;99.90;;;;;;5028807;28;20170;-73
2022/04/06 04:13:25;;;;;;;8.40;5.83;;;11.30;99.90;;;;;;5028815;28;20222;-76
2022/04/06 04:15:50;;;;;;;7.80;5.97;;;11.30;99.90;;;;;;5028105;28;20287;-75
2022/04/06 04:18:16;;;;;;;12.73;5.93;;;11.20;99.90;;;;;;5028954;28;20182;-75
2022/04/06 04:20:45;;;;;;;11.30;6.20;;;11.20;99.90;;;;;;5038277;28;20197;-75
2022/04/06 04:23:11;;;;;;;7.40;6.00;;;11.20;99.90;;;;;;5032983;28;20272;-75
2022/04/06 04:25:36;;;;;;;7.27;6.17;;;11.20;99.90;;;;;;5028215;28;20456;-75
2022/04/06 04:28:02;;;;;;;8.00;6.47;;;11.30;99.90;;;;;;5028312;28;20902;-75
2022/04/06 04:30:28;;;;;;;7.27;6.37;;;11.30;99.90;;;;;;5028433;28;20181;-75
2022/04/06 04:32:54;;;;;;;6.80;6.10;;;11.30;99.90;;;;;;5029011;28;20273;-75
2022/04/06 04:35:19;;;;;;;7.30;5.83;;;11.30;99.90;;;;;;5010850;28;20189;-75
2022/04/06 04:37:45;;;;;;;8.47;6.70;;;11.30;99.90;;;;;;5028562;28;20578;-75
2022/04/06 04:40:10;;;;;;;9.60;6.23;;;11.30;99.90;;;;;;5028107;28;20173;-75
2022/04/06 04:42:36;;;;;;;7.43;5.93;;;11.30;99.90;;;;;;5026630;28;20204;-72
2022/04/06 04:45:04;;;;;;;6.83;5.70;;;11.30;99.90;;;;;;5027843;28;20272;-75
2022/04/06 04:47:30;;;;;;;7.53;6.70;;;11.30;99.90;;;;;;5028721;28;20511;-75
2022/04/06 04:49:57;;;;;;;7.67;6.60;;;11.50;99.90;;;;;;5036852;28;20434;-75
2022/04/06 04:52:22;;;;;;;7.77;6.07;;;11.20;99.90;;;;;;5025130;28;20428;-75
2022/04/06 04:54:48;;;;;;;9.83;6.50;;;11.20;99.90;;;;;;5048609;28;20778;-75
2022/04/06 04:57:13;;;;;;;7.97;5.87;;;11.20;99.90;;;;;;5048108;28;20173;-76
2022/04/06 04:59:39;;;;;;;7.40;6.07;;;11.20;99.90;;;;;;5030040;28;20192;-75
2022/04/06 05:02:04;;;;;;;8.30;6.60;;;11.30;99.90;;;;;;5047639;28;20279;-75
2022/04/06 05:04:30;;;;;;;9.77;6.23;;;11.30;99.90;;;;;;5048253;28;20189;-75
2022/04/06 05:06:55;;;;;;;8.00;6.10;;;11.30;99.90;;;;;;5048120;28;20304;-75
2022/04/06 05:09:21;;;;;;;8.83;6.80;;;11.30;99.90;;;;;;5048618;28;20550;-74
2022/04/06 05:11:47;;;;;;;8.73;7.33;;;11.30;99.90;;;;;;5047673;28;20241;-75
2022/04/06 05:14:13;;;;;;;8.63;6.17;;;11.10;99.90;;;;;;5047883;28;20650;-75
2022/04/06 05:16:38;;;;;;;7.80;6.30;;;11.00;99.90;;;;;;5047631;28;20472;-75
2022/04/06 05:19:04;;;;;;;8.73;7.13;;;10.80;99.90;;;;;;5023284;28;20423;-75
2022/04/06 05:21:30;;;;;;;10.27;7.87;;;10.70;99.90;;;;;;5039400;28;20180;-75
2022/04/06 05:23:57;;;;;;;8.93;7.03;;;10.70;99.90;;;;;;5048077;28;20499;-75
2022/04/06 05:26:22;;;;;;;10.20;7.17;;;10.60;99.90;;;;;;5037854;28;20325;-74
2022/04/06 05:28:48;;;;;;;10.07;7.43;;;10.60;99.90;;;;;;5007787;28;20511;-75
2022/04/06 05:31:14;;;;;;;8.30;6.60;;;10.60;99.90;;;;;;5027357;28;20173;-75
2022/04/06 05:33:40;;;;;;;9.93;7.43;;;10.60;99.90;;;;;;5028149;28;20245;-74
2022/04/06 05:36:05;;;;;;;10.00;7.10;;;10.60;99.90;;;;;;5009794;28;20485;-75
2022/04/06 05:38:34;;;;;;;9.60;6.57;;;10.60;99.90;;;;;;5010183;28;20449;-74
2022/04/06 05:41:01;;;;;;;11.70;7.87;;;10.60;99.90;;;;;;5027246;28;20514;-75
2022/04/06 05:43:26;;;;;;;9.73;7.20;;;10.60;99.90;;;;;;5027564;28;20431;-74
2022/04/06 05:45:52;;;;;;;12.17;9.63;;;10.60;99.90;;;;;;5027364;28;20475;-75
2022/04/06 05:48:17;;;;;;;15.50;11.73;;;10.60;99.90;;;;;;5027582;28;20243;-74
2022/04/06 05:50:43;;;;;;;15.80;10.43;;;10.60;99.90;;;;;;5038252;28;20317;-75
2022/04/06 05:53:08;;;;;;;12.20;8.87;;;10.60;99.90;;;;;;5033366;28;20553;-75
2022/04/06 05:55:34;;;;;;;11.37;7.40;;;10.60;99.90;;;;;;5051417;28;20196;-74
2022/04/06 05:57:59;;;;;;;8.87;6.80;;;10.60;99.90;;;;;;5051123;28;20199;-74
2022/04/06 06:00:25;;;;;;;11.93;6.40;;;10.60;99.90;;;;;;5051336;28;20255;-76
2022/04/06 06:02:51;;;;;;;7.97;6.57;;;10.60;99.90;;;;;;5051356;28;20176;-75
2022/04/06 06:05:17;;;;;;;12.23;5.80;;;10.60;99.90;;;;;;5026808;28;20197;-73
2022/04/06 06:07:42;;;;;;;8.37;6.27;;;10.60;99.90;;;;;;5030587;28;20407;-75
2022/04/06 06:10:08;;;;;;;8.40;5.93;;;10.60;99.90;;;;;;5031630;28;20185;-75
2022/04/06 06:12:34;;;;;;;7.53;6.23;;;10.70;99.90;;;;;;5031056;28;20252;-76
2022/04/06 06:15:01;;;;;;;7.80;6.00;;;10.70;99.90;;;;;;5030247;28;20293;-74
2022/04/06 06:17:26;;;;;;;7.68;6.35;;;10.70;99.90;;;;;;5030896;28;20814;-75
2022/04/06 06:19:52;;;;;;;8.60;6.40;;;10.80;99.90;;;;;;5039841;28;20173;-74
2022/04/06 06:22:17;;;;;;;7.30;5.40;;;10.90;99.90;;;;;;5044963;28;20185;-74
2022/04/06 06:24:43;;;;;;;7.93;5.77;;;10.80;99.90;;;;;;5051362;28;20674;-75
2022/04/06 06:27:08;;;;;;;7.20;5.47;;;10.90;99.90;;;;;;5050586;28;20694;-74
2022/04/06 06:29:35;;;;;;;10.60;6.37;;;10.90;99.90;;;;;;5050652;28;20714;-74
2022/04/06 06:32:00;;;;;;;6.40;5.53;;;11.00;99.90;;;;;;5050194;28;20407;-74
2022/04/06 06:34:26;;;;;;;6.60;5.60;;;11.00;99.90;;;;;;5051122;28;20292;-75
2022/04/06 06:36:51;;;;;;;6.20;5.47;;;11.00;99.90;;;;;;5050793;28;20503;-74
2022/04/06 06:39:17;;;;;;;6.87;5.40;;;11.10;99.90;;;;;;5050847;28;20276;-74
2022/04/06 06:41:43;;;;;;;5.83;5.10;;;11.10;99.90;;;;;;5047824;28;20185;-75
2022/04/06 06:44:09;;;;;;;6.37;5.10;;;11.20;99.90;;;;;;5030099;28;20220;-75
2022/04/06 06:46:34;;;;;;;8.13;6.57;;;11.20;99.90;;;;;;5012045;28;20668;-74
2022/04/06 06:49:02;;;;;;;5.60;4.70;;;11.30;99.90;;;;;;5030219;28;20428;-74
2022/04/06 06:51:32;;;;;;;5.30;4.60;;;11.30;99.90;;;;;;5038485;28;20204;-74
2022/04/06 06:53:58;;;;;;;5.23;4.73;;;11.40;99.90;;;;;;5030637;28;20400;-74
2022/04/06 06:56:24;;;;;;;5.30;4.30;;;11.40;99.90;;;;;;5030152;28;20408;-74
2022/04/06 06:58:50;;;;;;;8.10;5.03;;;11.40;99.90;;;;;;5012433;28;20927;-74
2022/04/06 07:01:15;;;;;;;6.10;4.90;;;11.40;99.90;;;;;;5029526;28;20170;-74
2022/04/06 07:03:41;;;;;;;5.63;4.80;;;11.40;99.90;;;;;;5030161;28;20178;-74
2022/04/06 07:06:06;;;;;;;5.97;5.00;;;11.30;99.90;;;;;;5030469;28;20210;-74
2022/04/06 07:08:32;;;;;;;5.13;4.40;;;11.50;99.90;;;;;;5030502;28;20667;-74
2022/04/06 07:10:57;;;;;;;6.13;4.87;;;11.50;99.90;;;;;;5029932;28;20216;-74
2022/04/06 07:13:23;;;;;;;6.60;5.07;;;11.50;99.90;;;;;;5029673;28;20209;-75
2022/04/06 07:15:49;;;;;;;6.53;4.90;;;11.60;99.90;;;;;;5029841;28;20201;-75
2022/04/06 07:18:17;;;;;;;8.03;4.63;;;11.60;99.90;;;;;;5030061;28;20181;-74
2022/04/06 07:20:43;;;;;;;6.97;4.63;;;11.70;99.90;;;;;;5039509;28;20262;-75
2022/04/06 07:23:08;;;;;;;4.83;4.33;;;11.80;99.90;;;;;;5050042;28;21022;-74
2022/04/06 07:25:34;;;;;;;7.53;4.87;;;11.80;99.90;;;;;;5031513;28;20258;-74
2022/04/06 07:28:00;;;;;;;6.47;5.10;;;11.90;99.90;;;;;;5030893;28;20255;-74
2022/04/06 07:30:26;;;;;;;6.00;4.23;;;11.90;99.90;;;;;;5029516;28;20432;-75
2022/04/06 07:32:52;;;;;;;5.90;4.83;;;12.10;99.90;;;;;;5029878;28;20417;-75
2022/04/06 07:35:18;;;;;;;5.03;4.10;;;12.10;99.90;;;;;;5030282;28;20189;-74
2022/04/06 07:37:47;;;;;;;6.37;4.93;;;12.00;99.90;;;;;;5030286;28;20197;-75
2022/04/06 07:40:14;;;;;;;5.67;4.40;;;12.00;99.90;;;;;;5029987;28;20416;-75
2022/04/06 07:42:40;;;;;;;4.73;3.97;;;12.10;99.90;;;;;;5029207;28;20871;-74
2022/04/06 07:45:08;;;;;;;4.17;3.60;;;12.10;99.90;;;;;;5028996;28;20491;-75
2022/04/06 07:47:35;;;;;;;6.97;4.10;;;12.10;99.90;;;;;;5029596;28;20464;-74
2022/04/06 07:50:01;;;;;;;5.03;4.47;;;12.10;99.90;;;;;;5037891;28;20488;-73
2022/04/06 07:52:27;;;;;;;7.30;4.60;;;12.20;99.90;;;;;;5026268;28;20502;-74
2022/04/06 07:54:53;;;;;;;4.90;4.37;;;12.30;99.90;;;;;;5048994;28;20583;-74
2022/04/06 07:57:24;;;;;;;7.90;4.13;;;12.40;99.90;;;;;;5049120;28;20507;-74
2022/04/06 07:59:50;;;;;;;4.30;3.83;;;12.50;99.90;;;;;;5049141;28;20304;-74
2022/04/06 08:02:15;;;;;;;5.90;4.70;;;12.50;99.90;;;;;;5048904;28;20494;-74
2022/04/06 08:04:41;;;;;;;5.03;4.10;;;12.40;99.90;;;;;;5042448;28;20252;-74
2022/04/06 08:07:07;;;;;;;7.27;4.87;;;12.50;99.90;;;;;;5028859;28;20297;-74
2022/04/06 08:09:32;;;;;;;5.30;4.50;;;12.50;99.90;;;;;;5011347;28;20417;-74
2022/04/06 08:11:58;;;;;;;6.00;3.87;;;12.50;99.90;;;;;;5028403;28;20216;-74
2022/04/06 08:14:24;;;;;;;6.70;4.53;;;12.40;99.90;;;;;;5026845;28;20205;-74
2022/04/06 08:16:49;;;;;;;5.20;3.90;;;12.50;99.90;;;;;;5028999;28;20213;-74
2022/04/06 08:19:15;;;;;;;4.50;4.10;;;12.70;99.90;;;;;;5034721;28;20554;-74
2022/04/06 08:21:40;;;;;;;6.90;4.10;;;12.90;99.90;;;;;;5040583;28;20173;-74
2022/04/06 08:24:06;;;;;;;4.03;3.60;;;13.10;99.90;;;;;;5049616;28;20242;-74
2022/04/06 08:26:32;;;;;;;5.80;3.67;;;13.10;99.90;;;;;;5048459;28;20683;-74
2022/04/06 08:28:57;;;;;;;4.17;3.77;;;12.90;99.90;;;;;;5048658;28;20509;-73
2022/04/06 08:31:23;;;;;;;4.70;3.73;;;13.00;99.90;;;;;;5048342;28;20612;-74
2022/04/06 08:33:49;;;;;;;7.13;3.67;;;13.10;99.90;;;;;;5030864;28;20628;-74
2022/04/06 08:36:16;;;;;;;4.43;3.90;;;13.10;99.90;;;;;;5048792;28;20197;-74
2022/04/06 08:38:42;;;;;;;5.20;3.90;;;13.10;99.90;;;;;;5030893;28;20523;-74
2022/04/06 08:41:08;;;;;;;5.70;4.00;;;13.00;99.90;;;;;;5048180;28;20800;-74
2022/04/06 08:43:33;;;;;;;6.00;3.70;;;13.10;99.90;;;;;;5031052;28;20420;-74
2022/04/06 08:45:59;;;;;;;5.10;3.83;;;13.30;99.90;;;;;;5028149;28;20775;-75
2022/04/06 08:48:29;;;;;;;9.27;3.90;;;13.80;99.90;;;;;;5028661;28;20181;-73
2022/04/06 08:50:56;;;;;;;5.30;3.50;;;14.60;99.90;;;;;;5039290;28;20564;-74
2022/04/06 08:53:22;;;;;;;6.80;4.00;;;15.20;99.90;;;;;;5047468;28;20424;-74
2022/04/06 08:55:48;;;;;;;4.67;3.50;;;15.10;99.90;;;;;;5027970;28;20436;-74
2022/04/06 08:58:13;;;;;;;5.73;3.80;;;15.00;99.90;;;;;;5028213;28;20411;-74
2022/04/06 09:00:39;;;;;;;5.13;3.70;;;14.80;99.90;;;;;;5028542;28;20658;-74
2022/04/06 09:03:07;;;;;;;4.23;3.83;;;15.00;99.90;;;;;;5028240;28;20208;-74
2022/04/06 09:05:32;;;;;;;6.50;3.80;;;14.70;99.90;;;;;;5028653;28;20190;-74
2022/04/06 09:07:59;;;;;;;5.70;3.57;;;14.60;99.90;;;;;;5028416;28;20894;-74
2022/04/06 09:10:31;;;;;;;4.20;3.10;;;14.40;99.90;;;;;;5028964;28;20608;-74
2022/04/06 09:13:11;;;;;;;4.00;3.33;;;14.30;99.90;;;;;;5027696;28;20407;-74
2022/04/06 09:15:38;;;;;;;5.93;3.87;;;14.20;99.90;;;;;;5028073;28;20436;-74
2022/04/06 09:18:03;;;;;;;3.80;3.30;;;14.10;99.90;;;;;;5028310;28;20435;-74
2022/04/06 09:20:30;;;;;;;4.67;3.50;;;14.00;99.90;;;;;;5036601;28;20428;-74
2022/04/06 09:22:55;;;;;;;4.80;3.20;;;13.80;99.90;;;;;;5047113;28;20200;-74
2022/04/06 09:25:21;;;;;;;4.50;3.23;;;13.90;99.90;;;;;;5029988;28;20823;-74
2022/04/06 09:27:47;;;;;;;3.57;2.70;;;13.90;99.90;;;;;;5024475;28;20329;-74
2022/04/06 09:30:13;;;;;;;3.53;3.10;;;14.00;99.90;;;;;;5027487;28;20169;-74
2022/04/06 09:32:42;;;;;;;4.43;3.13;;;14.10;99.90;;;;;;5027993;28;20166;-74
2022/04/06 09:35:27;;;;;;;7.93;3.17;;;14.40;99.90;;;;;;5028004;28;20276;-74
2022/04/06 09:38:09;;;;;;;3.70;3.40;;;14.80;99.90;;;;;;5027905;28;20924;-74
2022/04/06 09:40:37;;;;;;;4.63;2.97;;;15.40;99.90;;;;;;5027715;28;20405;-73
2022/04/06 09:43:03;;;;;;;3.30;2.97;;;15.90;99.90;;;;;;5026529;28;20443;-74
2022/04/06 09:48:14;;;;;;;4.10;3.63;;;16.30;99.90;;;;;;5028483;28;20407;-76
2022/04/06 09:50:42;;;;;;;6.20;4.60;;;16.60;99.90;;;;;;5036831;28;20405;-76
2022/04/06 09:53:07;;;;;;;4.30;3.17;;;16.90;99.90;;;;;;5047911;28;20187;-74
2022/04/06 09:55:33;;;;;;;5.30;3.33;;;17.60;99.90;;;;;;5047507;28;20511;-74
2022/04/06 09:58:04;;;;;;;6.10;3.70;;;18.40;99.90;;;;;;5047204;28;20176;-76
2022/04/06 10:00:30;;;;;;;4.27;3.70;;;18.40;99.90;;;;;;5047410;28;20173;-75
2022/04/06 10:03:08;;;;;;;4.10;3.70;;;18.20;99.90;;;;;;5047682;28;20426;-74
2022/04/06 10:05:35;;;;;;;4.13;3.73;;;17.40;99.90;;;;;;5014961;28;20486;-74
2022/04/06 10:08:08;;;;;;;6.40;3.17;;;17.50;99.90;;;;;;5018468;28;20421;-74
2022/04/06 10:10:36;;;;;;;4.20;3.40;;;17.60;99.90;;;;;;5027058;28;20412;-75
2022/04/06 10:13:07;;;;;;;4.70;3.17;;;16.90;99.90;;;;;;5009154;28;20933;-74
2022/04/06 10:15:35;;;;;;;4.20;3.80;;;16.50;99.90;;;;;;5026700;28;20452;-74
2022/04/06 10:18:01;;;;;;;4.40;3.30;;;16.20;99.90;;;;;;5027757;28;20458;-74
2022/04/06 10:20:36;;;;;;;5.17;4.00;;;15.90;99.90;;;;;;5028232;28;20504;-74
2022/04/06 10:23:21;;;;;;;4.70;3.27;;;15.50;99.90;;;;;;5007560;28;20415;-74
2022/04/06 10:26:05;;;;;;;3.93;3.40;;;15.30;99.90;;;;;;5007536;28;20587;-74
2022/04/06 10:28:33;;;;;;;3.67;3.27;;;15.30;99.90;;;;;;5007526;28;20405;-74
2022/04/06 10:31:19;;;;;;;3.53;3.13;;;15.30;99.90;;;;;;5007209;28;20414;-76
2022/04/06 10:33:49;;;;;;;4.70;3.20;;;15.40;99.90;;;;;;4989974;28;20409;-74
2022/04/06 10:36:26;;;;;;;4.87;3.30;;;15.90;99.90;;;;;;5007560;28;20461;-74
2022/04/06 10:39:07;;;;;;;4.30;3.50;;;16.10;99.90;;;;;;5010467;28;20405;-74
2022/04/06 10:41:34;;;;;;;5.27;4.17;;;16.70;99.90;;;;;;5010463;28;20405;-72
2022/04/06 10:44:00;;;;;;;4.47;3.60;;;17.00;99.90;;;;;;5021981;28;20566;-75
2022/04/06 10:46:35;;;;;;;3.63;3.17;;;17.10;99.90;;;;;;5030651;28;20543;-74
2022/04/06 10:49:06;;;;;;;5.23;3.57;;;16.80;99.90;;;;;;5016548;28;20169;-74
2022/04/06 10:51:39;;;;;;;3.63;3.27;;;16.90;99.90;;;;;;5042089;28;20495;-74
2022/04/06 10:54:13;;;;;;;7.60;3.63;;;17.20;99.90;;;;;;5032628;28;20404;-74
2022/04/06 10:56:53;;;;;;;3.70;2.73;;;17.10;99.90;;;;;;5049910;28;20406;-74
2022/04/06 10:59:23;;;;;;;4.40;3.53;;;16.70;99.90;;;;;;5050506;28;20453;-75
2022/04/06 11:02:09;;;;;;;3.80;3.50;;;16.60;99.90;;;;;;5049671;28;20900;-75
2022/04/06 11:04:39;;;;;;;4.70;4.27;;;17.10;99.90;;;;;;5028478;28;20493;-75
2022/04/06 11:07:05;;;;;;;6.03;4.47;;;17.80;99.90;;;;;;5029591;28;20531;-75
2022/04/06 11:12:23;;;;;;;6.60;5.23;;;20.10;99.90;;;;;;5029095;28;20181;-74
2022/04/06 11:14:58;;;;;;;6.80;4.47;;;19.00;99.90;;;;;;5029562;28;20453;-75
2022/04/06 11:17:34;;;;;;;5.23;4.60;;;18.50;99.90;;;;;;5029782;28;20404;-75
2022/04/06 11:20:14;;;;;;;5.90;4.47;;;19.90;99.90;;;;;;5019744;28;21105;-75
2022/04/06 11:22:49;;;;;;;8.30;4.93;;;21.60;99.90;;;;;;5045936;28;20758;-75
2022/04/06 11:25:16;;;;;;;5.33;4.67;;;21.20;99.90;;;;;;5032139;28;20439;-74
2022/04/06 11:27:44;;;;;;;7.90;4.70;;;20.20;99.90;;;;;;5027452;28;20464;-75
2022/04/06 11:30:15;;;;;;;8.17;5.27;;;19.10;99.90;;;;;;5029326;28;20408;-75
2022/04/06 11:32:43;;;;;;;10.93;4.87;;;18.20;99.90;;;;;;5012268;28;20405;-74
2022/04/06 11:35:13;;;;;;;5.83;4.70;;;18.50;99.90;;;;;;5029951;28;20424;-74
2022/04/06 11:37:41;;;;;;;5.10;4.13;;;18.60;99.90;;;;;;5012196;28;20523;-75
2022/04/06 11:40:08;;;;;;;7.00;4.00;;;18.30;99.90;;;;;;5012293;28;20431;-74
2022/04/06 11:42:33;;;;;;;4.73;4.03;;;17.80;99.90;;;;;;5011089;28;20409;-75
2022/04/06 11:44:59;;;;;;;5.23;4.00;;;17.40;99.90;;;;;;5029844;28;20486;-74
2022/04/06 11:47:33;;;;;;;4.70;3.70;;;17.20;99.90;;;;;;5011542;28;20201;-74
2022/04/06 11:49:59;;;;;;;7.07;4.10;;;17.10;99.90;;;;;;5037742;28;20251;-74
2022/04/06 11:52:25;;;;;;;3.70;3.20;;;17.10;99.90;;;;;;5044560;28;20799;-74
2022/04/06 11:54:52;;;;;;;6.43;4.23;;;17.20;99.90;;;;;;5049787;28;20432;-74
2022/04/06 11:57:18;;;;;;;6.10;3.50;;;17.50;99.90;;;;;;5031188;28;20177;-74
2022/04/06 11:59:56;;;;;;;4.33;3.70;;;17.70;99.90;;;;;;5050563;28;20430;-74
2022/04/06 12:02:22;;;;;;;5.93;4.00;;;17.70;99.90;;;;;;5030976;28;20169;-74
2022/04/06 12:04:59;;;;;;;5.53;3.97;;;17.40;99.90;;;;;;5024784;28;20643;-74
2022/04/06 12:07:25;;;;;;;6.30;3.67;;;17.50;99.90;;;;;;5028269;28;20471;-74
2022/04/06 12:09:51;;;;;;;7.73;3.97;;;19.00;99.90;;;;;;5011842;28;20899;-74
2022/04/06 12:12:17;;;;;;;6.63;3.10;;;20.60;99.40;;;;;;5028887;28;20220;-74
2022/04/06 12:14:43;;;;;;;6.63;3.60;;;21.40;97.30;;;;;;5028223;28;20444;-74
2022/04/06 12:17:09;;;;;;;6.17;3.60;;;21.00;95.90;;;;;;5029089;28;20372;-75
2022/04/06 12:19:34;;;;;;;6.03;3.70;;;20.30;98.40;;;;;;5029026;28;20174;-75
2022/04/06 12:22:07;;;;;;;5.63;3.53;;;21.10;95.70;;;;;;5027403;28;20417;-75
2022/04/06 12:24:40;;;;;;;8.33;3.37;;;21.10;93.30;;;;;;5011383;28;20193;-75
2022/04/06 12:27:06;;;;;;;5.67;3.40;;;21.60;93.50;;;;;;5028636;28;20452;-75
2022/04/06 12:29:33;;;;;;;6.00;3.50;;;22.60;91.40;;;;;;5029008;28;20933;-75
2022/04/06 12:31:59;;;;;;;5.73;3.40;;;23.80;82.70;;;;;;5010579;28;20173;-74
2022/04/06 12:34:28;;;;;;;5.40;3.47;;;25.40;79.50;;;;;;5028925;28;20751;-75
2022/04/06 12:36:54;;;;;;;5.40;3.50;;;25.80;70.20;;;;;;5010767;28;20177;-75
2022/04/06 12:39:20;;;;;;;6.20;3.80;;;24.40;74.90;;;;;;5027731;28;20483;-74
2022/04/06 12:42:01;;;;;;;7.47;3.27;;;23.30;80.10;;;;;;5025384;28;20264;-75
2022/04/06 12:44:28;;;;;;;6.77;3.13;;;23.10;83.10;;;;;;5007390;28;20269;-75
2022/04/06 12:46:54;;;;;;;5.53;3.40;;;22.70;86.90;;;;;;5007820;28;20448;-75
2022/04/06 12:49:21;;;;;;;7.43;3.70;;;22.10;85.80;;;;;;5028046;28;20403;-75
2022/04/06 12:51:47;;;;;;;6.03;3.30;;;21.20;88.40;;;;;;5039937;28;20184;-75
2022/04/06 12:54:13;;;;;;;7.10;3.70;;;20.50;90.40;;;;;;5032414;28;20704;-75